createdAt,value
2022-08-25T00:00:53.210Z,96.25
2022-08-25T00:02:03.013Z,96.53
2022-08-25T00:03:04.843Z,96.59
2022-08-25T00:04:10.995Z,96.59
2022-08-25T00:05:13.047Z,96.31
2022-08-25T00:06:15.814Z,96.63
2022-08-25T00:07:18.659Z,96.62
2022-08-25T00:08:20.364Z,96.68
2022-08-25T00:09:25.446Z,96.64
2022-08-25T00:10:27.329Z,96.29
2022-08-25T00:11:32.018Z,96.49
2022-08-25T00:12:33.765Z,96.43
2022-08-25T00:13:35.356Z,96.74
2022-08-25T00:14:38.071Z,96.78
2022-08-25T00:15:39.735Z,96.73
2022-08-25T00:16:41.926Z,96.75
2022-08-25T00:17:43.533Z,96.35
2022-08-25T00:18:50.251Z,97.00
2022-08-25T00:19:51.865Z,96.89
2022-08-25T00:20:53.642Z,96.82
2022-08-25T00:21:56.382Z,96.53
2022-08-25T00:22:58.527Z,97.00
2022-08-25T00:24:02.448Z,96.67
2022-08-25T00:25:04.483Z,96.83
2022-08-25T00:26:07.196Z,96.82
2022-08-25T00:27:08.907Z,96.68
2022-08-25T00:28:10.787Z,96.73
2022-08-25T00:29:13.487Z,96.77
2022-08-25T00:30:16.823Z,96.94
2022-08-25T00:31:20.895Z,96.64
2022-08-25T00:32:24.442Z,97.06
2022-08-25T00:33:26.329Z,97.43
2022-08-25T00:34:37.891Z,97.20
2022-08-25T00:35:41.180Z,97.18
2022-08-25T00:36:43.607Z,96.99
2022-08-25T00:37:45.303Z,96.51
2022-08-25T00:38:48.170Z,95.86
2022-08-25T00:39:49.958Z,95.94
2022-08-25T00:41:05.987Z,95.27
2022-08-25T00:42:15.875Z,95.14
2022-08-25T00:43:18.865Z,95.54
2022-08-25T00:44:20.648Z,95.80
2022-08-25T00:45:23.256Z,95.97
2022-08-25T00:46:31.977Z,96.09
2022-08-25T00:47:33.681Z,96.50
2022-08-25T00:48:35.302Z,96.72
2022-08-25T00:49:41.839Z,96.91
2022-08-25T00:50:43.574Z,96.89
2022-08-25T00:51:51.331Z,97.43
2022-08-25T00:52:56.186Z,98.18
2022-08-25T00:53:58.463Z,99.33
2022-08-25T00:55:09.563Z,100.00
2022-08-25T00:56:13.134Z,100.00
2022-08-25T00:57:18.495Z,100.00
2022-08-25T00:58:27.198Z,100.00
2022-08-25T00:59:29.321Z,100.00
2022-08-25T01:00:38.233Z,100.00
2022-08-25T01:01:40.250Z,100.00
2022-08-25T01:02:41.949Z,100.00
2022-08-25T01:03:43.640Z,100.00
2022-08-25T01:04:49.227Z,100.00
2022-08-25T01:05:52.128Z,100.00
2022-08-25T01:06:55.701Z,100.00
2022-08-25T01:07:59.004Z,100.00
2022-08-25T01:09:01.758Z,100.00
2022-08-25T01:10:07.697Z,100.00
2022-08-25T01:11:11.338Z,100.00
2022-08-25T01:12:13.474Z,100.00
2022-08-25T01:13:27.730Z,100.00
2022-08-25T01:14:31.980Z,100.00
2022-08-25T01:15:34.612Z,100.00
2022-08-25T01:16:39.541Z,100.00
2022-08-25T01:17:49.882Z,100.00
2022-08-25T01:18:56.441Z,100.00
2022-08-25T01:19:58.029Z,100.00
2022-08-25T01:21:00.144Z,100.00
2022-08-25T01:22:01.915Z,100.00
2022-08-25T01:23:04.231Z,100.00
2022-08-25T01:24:06.982Z,100.00
2022-08-25T01:25:24.490Z,100.00
2022-08-25T01:26:31.051Z,100.00
2022-08-25T01:27:32.761Z,100.00
2022-08-25T01:28:35.522Z,100.00
2022-08-25T01:29:37.969Z,100.00
2022-08-25T01:30:40.134Z,100.00
2022-08-25T01:31:41.971Z,100.00
2022-08-25T01:32:43.609Z,100.00
2022-08-25T01:33:45.527Z,100.00
2022-08-25T01:34:47.340Z,100.00
2022-08-25T01:35:49.208Z,100.00
2022-08-25T01:36:51.159Z,100.00
2022-08-25T01:37:52.723Z,100.00
2022-08-25T01:38:55.212Z,100.00
2022-08-25T01:39:56.855Z,100.00
2022-08-25T01:40:58.445Z,100.00
2022-08-25T01:42:02.995Z,100.00
2022-08-25T01:43:07.722Z,100.00
2022-08-25T01:44:12.373Z,100.00
2022-08-25T01:45:18.989Z,100.00
2022-08-25T01:46:21.133Z,100.00
2022-08-25T01:47:23.991Z,100.00
2022-08-25T01:48:25.538Z,100.00
2022-08-25T01:49:27.127Z,100.00
2022-08-25T01:50:29.604Z,100.00
2022-08-25T01:51:39.021Z,100.00
2022-08-25T01:52:59.779Z,100.00
2022-08-25T01:54:01.434Z,100.00
2022-08-25T01:55:04.160Z,100.00
2022-08-25T01:56:11.609Z,100.00
2022-08-25T01:57:13.564Z,100.00
2022-08-25T01:58:15.154Z,100.00
2022-08-25T01:59:24.151Z,100.00
2022-08-25T02:00:26.068Z,100.00
2022-08-25T02:01:28.019Z,100.00
2022-08-25T02:02:29.787Z,100.00
2022-08-25T02:03:38.688Z,100.00
2022-08-25T02:04:44.391Z,100.00
2022-08-25T02:05:48.054Z,100.00
2022-08-25T02:06:50.362Z,100.00
2022-08-25T02:07:51.966Z,100.00
2022-08-25T02:08:55.391Z,100.00
2022-08-25T02:09:57.040Z,100.00
2022-08-25T02:11:00.797Z,100.00
2022-08-25T02:12:02.712Z,100.00
2022-08-25T02:13:05.860Z,100.00
2022-08-25T02:14:14.420Z,99.94
2022-08-25T02:15:15.991Z,99.83
2022-08-25T02:16:21.386Z,99.92
2022-08-25T02:17:23.001Z,99.43
2022-08-25T02:18:25.304Z,99.52
2022-08-25T02:19:27.014Z,99.79
2022-08-25T02:20:28.922Z,100.00
2022-08-25T02:21:30.631Z,99.89
2022-08-25T02:22:32.655Z,100.00
2022-08-25T02:23:34.211Z,100.00
2022-08-25T02:24:35.797Z,100.00
2022-08-25T02:25:39.912Z,100.00
2022-08-25T02:26:41.682Z,100.00
2022-08-25T02:27:43.831Z,100.00
2022-08-25T02:28:51.080Z,100.00
2022-08-25T02:29:52.759Z,100.00
2022-08-25T02:31:01.659Z,100.00
2022-08-25T02:32:03.985Z,100.00
2022-08-25T02:33:05.658Z,100.00
2022-08-25T02:34:08.774Z,100.00
2022-08-25T02:35:10.701Z,100.00
2022-08-25T02:36:12.942Z,100.00
2022-08-25T02:37:14.680Z,100.00
2022-08-25T02:38:16.287Z,100.00
2022-08-25T02:39:17.896Z,100.00
2022-08-25T02:40:21.443Z,100.00
2022-08-25T02:41:30.966Z,100.00
2022-08-25T02:42:33.701Z,100.00
2022-08-25T02:43:35.323Z,100.00
2022-08-25T02:44:36.884Z,100.00
2022-08-25T02:45:38.518Z,100.00
2022-08-25T02:46:40.170Z,100.00
2022-08-25T02:47:41.895Z,100.00
2022-08-25T02:48:43.552Z,100.00
2022-08-25T02:49:45.181Z,100.00
2022-08-25T02:50:48.608Z,100.00
2022-08-25T02:51:50.197Z,100.00
2022-08-25T02:52:52.502Z,100.00
2022-08-25T02:53:54.139Z,100.00
2022-08-25T02:54:55.732Z,100.00
2022-08-25T02:55:57.493Z,100.00
2022-08-25T02:56:59.620Z,100.00
2022-08-25T02:58:01.375Z,100.00
2022-08-25T02:59:03.445Z,100.00
2022-08-25T03:00:06.221Z,100.00
2022-08-25T03:01:12.009Z,100.00
2022-08-25T03:02:14.858Z,100.00
2022-08-25T03:03:16.623Z,100.00
2022-08-25T03:04:18.608Z,100.00
2022-08-25T03:05:20.324Z,100.00
2022-08-25T03:06:24.142Z,100.00
2022-08-25T03:07:25.762Z,100.00
2022-08-25T03:08:27.907Z,100.00
2022-08-25T03:09:29.538Z,100.00
2022-08-25T03:10:36.155Z,100.00
2022-08-25T03:11:40.995Z,100.00
2022-08-25T03:12:42.857Z,100.00
2022-08-25T03:13:44.556Z,100.00
2022-08-25T03:14:46.133Z,100.00
2022-08-25T03:15:49.296Z,100.00
2022-08-25T03:16:51.332Z,100.00
2022-08-25T03:17:54.037Z,100.00
2022-08-25T03:18:56.556Z,100.00
2022-08-25T03:19:59.139Z,100.00
2022-08-25T03:21:00.809Z,100.00
2022-08-25T03:22:02.458Z,100.00
2022-08-25T03:23:05.346Z,100.00
2022-08-25T03:24:07.414Z,100.00
2022-08-25T03:25:28.599Z,100.00
2022-08-25T03:26:49.112Z,100.00
2022-08-25T03:27:51.650Z,100.00
2022-08-25T03:28:55.500Z,100.00
2022-08-25T03:29:57.094Z,100.00
2022-08-25T03:31:00.535Z,100.00
2022-08-25T03:32:02.307Z,100.00
2022-08-25T03:33:04.262Z,100.00
2022-08-25T03:34:06.001Z,100.00
2022-08-25T03:35:08.162Z,100.00
2022-08-25T03:36:12.243Z,100.00
2022-08-25T03:37:13.967Z,100.00
2022-08-25T03:38:16.894Z,100.00
2022-08-25T03:39:20.660Z,100.00
2022-08-25T03:40:23.211Z,100.00
2022-08-25T03:41:29.264Z,100.00
2022-08-25T03:42:32.303Z,100.00
2022-08-25T03:43:34.559Z,100.00
2022-08-25T03:44:36.749Z,100.00
2022-08-25T03:45:43.324Z,100.00
2022-08-25T03:46:48.638Z,100.00
2022-08-25T03:47:51.728Z,100.00
2022-08-25T03:48:53.855Z,100.00
2022-08-25T03:49:56.317Z,100.00
2022-08-25T03:50:57.981Z,100.00
2022-08-25T03:51:59.626Z,100.00
2022-08-25T03:53:01.720Z,100.00
2022-08-25T03:54:04.490Z,100.00
2022-08-25T03:55:08.544Z,100.00
2022-08-25T03:56:10.642Z,100.00
2022-08-25T03:57:12.666Z,100.00
2022-08-25T03:58:14.793Z,100.00
2022-08-25T03:59:16.684Z,100.00
2022-08-25T04:00:19.921Z,100.00
2022-08-25T04:01:22.021Z,100.00
2022-08-25T04:02:23.762Z,100.00
2022-08-25T04:03:25.340Z,100.00
2022-08-25T04:04:27.035Z,100.00
2022-08-25T04:05:28.641Z,100.00
2022-08-25T04:06:30.532Z,100.00
2022-08-25T04:07:32.303Z,100.00
2022-08-25T04:08:34.382Z,100.00
2022-08-25T04:09:36.982Z,100.00
2022-08-25T04:10:38.830Z,100.00
2022-08-25T04:11:41.050Z,100.00
2022-08-25T04:12:44.446Z,100.00
2022-08-25T04:13:47.354Z,100.00
2022-08-25T04:14:49.035Z,100.00
2022-08-25T04:15:50.638Z,100.00
2022-08-25T04:16:53.054Z,100.00
2022-08-25T04:17:54.907Z,100.00
2022-08-25T04:18:57.764Z,100.00
2022-08-25T04:19:59.762Z,100.00
2022-08-25T04:21:03.504Z,100.00
2022-08-25T04:22:05.093Z,100.00
2022-08-25T04:23:06.724Z,100.00
2022-08-25T04:24:11.314Z,100.00
2022-08-25T04:25:13.578Z,100.00
2022-08-25T04:26:21.174Z,100.00
2022-08-25T04:27:22.736Z,100.00
2022-08-25T04:28:24.384Z,100.00
2022-08-25T04:29:26.534Z,100.00
2022-08-25T04:30:28.204Z,100.00
2022-08-25T04:31:31.349Z,100.00
2022-08-25T04:32:33.308Z,100.00
2022-08-25T04:33:36.076Z,100.00
2022-08-25T04:34:37.653Z,100.00
2022-08-25T04:35:41.177Z,100.00
2022-08-25T04:36:42.825Z,100.00
2022-08-25T04:37:45.089Z,100.00
2022-08-25T04:38:48.402Z,100.00
2022-08-25T04:39:49.972Z,100.00
2022-08-25T04:41:03.405Z,100.00
2022-08-25T04:42:05.380Z,100.00
2022-08-25T04:43:07.241Z,100.00
2022-08-25T04:44:08.876Z,100.00
2022-08-25T04:45:11.166Z,100.00
2022-08-25T04:46:23.217Z,100.00
2022-08-25T04:47:26.072Z,100.00
2022-08-25T04:48:29.714Z,100.00
2022-08-25T04:49:32.072Z,100.00
2022-08-25T04:50:33.695Z,100.00
2022-08-25T04:51:39.675Z,100.00
2022-08-25T04:52:41.296Z,100.00
2022-08-25T04:53:43.751Z,100.00
2022-08-25T04:54:45.340Z,100.00
2022-08-25T04:55:48.560Z,100.00
2022-08-25T04:56:54.275Z,100.00
2022-08-25T04:57:59.721Z,100.00
2022-08-25T04:59:07.729Z,100.00
2022-08-25T05:00:10.000Z,99.57
2022-08-25T05:01:15.825Z,99.35
2022-08-25T05:02:17.666Z,99.94
2022-08-25T05:03:19.280Z,100.00
2022-08-25T05:04:28.067Z,99.99
2022-08-25T05:05:31.960Z,100.00
2022-08-25T05:06:35.991Z,100.00
2022-08-25T05:07:37.587Z,100.00
2022-08-25T05:08:39.774Z,100.00
2022-08-25T05:09:41.467Z,100.00
2022-08-25T05:10:43.207Z,100.00
2022-08-25T05:11:45.609Z,100.00
2022-08-25T05:12:48.604Z,100.00
2022-08-25T05:13:52.389Z,100.00
2022-08-25T05:14:54.668Z,100.00
2022-08-25T05:16:00.194Z,100.00
2022-08-25T05:17:02.485Z,100.00
2022-08-25T05:18:04.329Z,99.38
2022-08-25T05:19:06.496Z,98.84
2022-08-25T05:20:08.694Z,98.57
2022-08-25T05:21:13.262Z,98.41
2022-08-25T05:22:14.842Z,98.26
2022-08-25T05:23:16.958Z,98.12
2022-08-25T05:24:18.874Z,96.90
2022-08-25T05:25:20.517Z,97.53
2022-08-25T05:26:22.808Z,98.09
2022-08-25T05:27:24.365Z,97.90
2022-08-25T05:28:25.959Z,97.85
2022-08-25T05:29:27.539Z,98.44
2022-08-25T05:30:29.333Z,98.72
2022-08-25T05:31:32.441Z,98.14
2022-08-25T05:32:34.079Z,98.11
2022-08-25T05:33:37.421Z,98.08
2022-08-25T05:34:39.008Z,98.17
2022-08-25T05:35:40.635Z,98.37
2022-08-25T05:36:43.578Z,98.04
2022-08-25T05:37:45.331Z,97.54
2022-08-25T05:38:47.564Z,96.57
2022-08-25T05:39:49.249Z,96.52
2022-08-25T05:41:03.513Z,96.79
2022-08-25T05:42:05.423Z,96.65
2022-08-25T05:43:07.051Z,96.54
2022-08-25T05:44:08.708Z,97.08
2022-08-25T05:45:15.817Z,97.63
2022-08-25T05:46:22.380Z,99.72
2022-08-25T05:47:24.168Z,99.70
2022-08-25T05:48:26.824Z,100.00
2022-08-25T05:49:28.540Z,99.43
2022-08-25T05:50:30.138Z,99.04
2022-08-25T05:51:31.719Z,99.35
2022-08-25T05:52:33.516Z,98.80
2022-08-25T05:53:35.643Z,99.62
2022-08-25T05:54:37.196Z,99.28
2022-08-25T05:55:38.755Z,100.00
2022-08-25T05:56:40.506Z,100.00
2022-08-25T05:57:42.559Z,100.00
2022-08-25T05:58:44.557Z,100.00
2022-08-25T05:59:46.210Z,100.00
2022-08-25T06:00:47.914Z,100.00
2022-08-25T06:02:08.173Z,100.00
2022-08-25T06:03:09.832Z,100.00
2022-08-25T06:04:11.494Z,100.00
2022-08-25T06:05:20.067Z,100.00
2022-08-25T06:06:24.327Z,100.00
2022-08-25T06:07:26.088Z,100.00
2022-08-25T06:08:32.277Z,100.00
2022-08-25T06:09:33.878Z,100.00
2022-08-25T06:10:35.912Z,100.00
2022-08-25T06:11:39.991Z,100.00
2022-08-25T06:12:47.509Z,100.00
2022-08-25T06:13:50.039Z,100.00
2022-08-25T06:14:51.639Z,100.00
2022-08-25T06:15:58.118Z,100.00
2022-08-25T06:17:00.666Z,100.00
2022-08-25T06:18:03.481Z,100.00
2022-08-25T06:19:05.709Z,100.00
2022-08-25T06:20:09.694Z,100.00
2022-08-25T06:21:14.189Z,100.00
2022-08-25T06:22:15.765Z,100.00
2022-08-25T06:23:19.203Z,100.00
2022-08-25T06:24:20.855Z,100.00
2022-08-25T06:25:25.681Z,100.00
2022-08-25T06:26:27.296Z,100.00
2022-08-25T06:27:28.899Z,100.00
2022-08-25T06:28:30.496Z,100.00
2022-08-25T06:29:32.700Z,100.00
2022-08-25T06:30:34.343Z,100.00
2022-08-25T06:31:36.655Z,100.00
2022-08-25T06:32:40.001Z,100.00
2022-08-25T06:33:41.645Z,100.00
2022-08-25T06:34:43.244Z,100.00
2022-08-25T06:35:45.068Z,100.00
2022-08-25T06:36:48.957Z,100.00
2022-08-25T06:37:51.091Z,100.00
2022-08-25T06:38:53.513Z,100.00
2022-08-25T06:39:55.769Z,100.00
2022-08-25T06:40:57.825Z,100.00
2022-08-25T06:41:59.444Z,100.00
2022-08-25T06:43:01.104Z,100.00
2022-08-25T06:44:05.484Z,100.00
2022-08-25T06:45:08.232Z,98.82
2022-08-25T06:46:17.115Z,100.00
2022-08-25T06:47:18.947Z,100.00
2022-08-25T06:48:20.672Z,100.00
2022-08-25T06:49:22.465Z,100.00
2022-08-25T06:50:24.222Z,98.72
2022-08-25T06:51:26.644Z,97.40
2022-08-25T06:52:29.438Z,97.32
2022-08-25T06:53:31.193Z,97.37
2022-08-25T06:54:33.186Z,95.53
2022-08-25T06:55:35.518Z,95.42
2022-08-25T06:56:39.393Z,93.29
2022-08-25T06:57:40.988Z,96.07
2022-08-25T06:58:42.832Z,94.86
2022-08-25T06:59:44.707Z,97.44
2022-08-25T07:00:46.383Z,97.85
2022-08-25T07:01:49.646Z,97.69
2022-08-25T07:02:51.904Z,97.54
2022-08-25T07:04:00.119Z,96.98
2022-08-25T07:05:01.722Z,96.68
2022-08-25T07:06:04.041Z,97.13
2022-08-25T07:07:05.728Z,93.50
2022-08-25T07:08:07.476Z,93.17
2022-08-25T07:09:11.385Z,94.49
2022-08-25T07:10:13.216Z,96.00
2022-08-25T07:11:17.593Z,93.53
2022-08-25T07:12:19.503Z,93.92
2022-08-25T07:13:21.347Z,95.41
2022-08-25T07:14:23.438Z,94.73
2022-08-25T07:15:25.078Z,93.83
2022-08-25T07:16:29.763Z,95.93
2022-08-25T07:17:31.931Z,95.14
2022-08-25T07:18:34.532Z,95.82
2022-08-25T07:19:36.151Z,94.57
2022-08-25T07:20:40.280Z,92.78
2022-08-25T07:21:45.798Z,93.78
2022-08-25T07:22:48.113Z,91.64
2022-08-25T07:23:49.835Z,94.02
2022-08-25T07:24:51.461Z,93.91
2022-08-25T07:25:54.239Z,94.08
2022-08-25T07:26:55.888Z,91.75
2022-08-25T07:27:59.013Z,91.07
2022-08-25T07:29:01.851Z,94.14
2022-08-25T07:30:07.553Z,96.00
2022-08-25T07:31:10.089Z,94.65
2022-08-25T07:32:12.117Z,93.61
2022-08-25T07:33:13.876Z,93.71
2022-08-25T07:34:34.730Z,92.67
2022-08-25T07:35:37.891Z,93.24
2022-08-25T07:36:39.619Z,90.91
2022-08-25T07:37:50.862Z,90.10
2022-08-25T07:38:53.495Z,89.78
2022-08-25T07:39:57.145Z,89.20
2022-08-25T07:41:05.193Z,87.01
2022-08-25T07:42:12.174Z,87.50
2022-08-25T07:43:13.880Z,88.26
2022-08-25T07:44:15.460Z,88.23
2022-08-25T07:45:20.811Z,87.91
2022-08-25T07:46:22.766Z,88.19
2022-08-25T07:47:24.443Z,90.69
2022-08-25T07:48:26.052Z,91.21
2022-08-25T07:49:35.827Z,92.04
2022-08-25T07:50:45.353Z,91.54
2022-08-25T07:52:04.033Z,90.61
2022-08-25T07:53:08.949Z,89.43
2022-08-25T07:54:10.689Z,88.96
2022-08-25T07:55:12.386Z,87.92
2022-08-25T07:56:19.653Z,87.81
2022-08-25T07:57:22.364Z,87.94
2022-08-25T07:58:24.247Z,87.29
2022-08-25T07:59:25.959Z,86.68
2022-08-25T08:00:30.278Z,85.05
2022-08-25T08:01:32.031Z,84.13
2022-08-25T08:02:35.144Z,83.85
2022-08-25T08:03:50.680Z,82.26
2022-08-25T08:04:53.823Z,82.64
2022-08-25T08:05:56.586Z,80.88
2022-08-25T08:06:58.150Z,82.10
2022-08-25T08:08:02.466Z,81.20
2022-08-25T08:09:05.072Z,81.79
2022-08-25T08:10:37.049Z,79.99
2022-08-25T08:11:34.573Z,78.74
2022-08-25T08:12:36.667Z,77.17
2022-08-25T08:13:41.436Z,75.64
2022-08-25T08:14:45.047Z,74.46
2022-08-25T08:15:47.920Z,73.50
2022-08-25T08:16:49.791Z,75.04
2022-08-25T08:17:51.554Z,73.69
2022-08-25T08:18:53.947Z,74.15
2022-08-25T08:19:55.537Z,72.31
2022-08-25T08:20:57.137Z,71.10
2022-08-25T08:22:02.164Z,72.65
2022-08-25T08:23:04.539Z,71.44
2022-08-25T08:24:14.797Z,72.43
2022-08-25T08:25:27.805Z,71.31
2022-08-25T08:26:55.239Z,71.15
2022-08-25T08:27:54.907Z,71.17
2022-08-25T08:28:56.927Z,70.89
2022-08-25T08:29:59.598Z,71.37
2022-08-25T08:31:01.439Z,69.61
2022-08-25T08:32:05.522Z,68.66
2022-08-25T08:33:11.414Z,67.77
2022-08-25T08:34:13.716Z,67.48
2022-08-25T08:35:18.875Z,65.41
2022-08-25T08:36:21.998Z,65.96
2022-08-25T08:37:28.134Z,66.31
2022-08-25T08:38:30.072Z,66.17
2022-08-25T08:39:31.679Z,64.81
2022-08-25T08:40:42.185Z,66.69
2022-08-25T08:42:11.123Z,64.48
2022-08-25T08:43:19.352Z,66.69
2022-08-25T08:44:43.020Z,68.73
2022-08-25T08:45:51.941Z,69.04
2022-08-25T08:47:28.307Z,68.67
2022-08-25T08:48:43.646Z,66.90
2022-08-25T08:50:06.723Z,67.17
2022-08-25T08:51:23.092Z,68.64
2022-08-25T08:52:48.807Z,70.13
2022-08-25T08:54:02.501Z,71.51
2022-08-25T08:55:12.070Z,71.74
2022-08-25T08:56:21.509Z,74.06
2022-08-25T08:57:28.391Z,75.00
2022-08-25T08:58:50.035Z,72.80
2022-08-25T09:00:00.161Z,72.87
2022-08-25T09:01:01.919Z,73.26
2022-08-25T09:02:06.180Z,74.56
2022-08-25T09:03:55.154Z,75.85
2022-08-25T09:05:07.093Z,75.88
2022-08-25T09:06:29.720Z,74.84
2022-08-25T09:07:45.412Z,75.16
2022-08-25T09:08:49.089Z,74.03
2022-08-25T09:09:52.229Z,78.15
2022-08-25T09:10:57.763Z,76.65
2022-08-25T09:12:34.142Z,72.13
2022-08-25T09:13:56.685Z,74.58
2022-08-25T09:15:19.846Z,77.30
2022-08-25T09:16:56.942Z,71.15
2022-08-25T09:18:23.409Z,72.07
2022-08-25T09:19:55.227Z,73.33
2022-08-25T09:21:13.456Z,76.18
2022-08-25T09:22:35.624Z,74.30
2022-08-25T09:24:12.008Z,72.42
2022-08-25T09:25:39.759Z,69.08
2022-08-25T09:26:49.349Z,69.50
2022-08-25T09:28:21.795Z,70.47
2022-08-25T09:29:27.919Z,69.82
2022-08-25T09:30:41.464Z,67.72
2022-08-25T09:31:43.549Z,68.93
2022-08-25T09:32:53.558Z,68.95
2022-08-25T09:33:57.683Z,69.38
2022-08-25T09:35:01.705Z,69.65
2022-08-25T09:36:06.417Z,72.58
2022-08-25T09:37:10.543Z,71.51
2022-08-25T09:38:13.755Z,69.23
2022-08-25T09:39:15.507Z,70.36
2022-08-25T09:40:17.556Z,68.38
2022-08-25T09:41:41.080Z,65.14
2022-08-25T09:42:51.262Z,65.26
2022-08-25T09:43:59.376Z,67.27
2022-08-25T09:45:01.114Z,68.22
2022-08-25T09:46:05.206Z,67.79
2022-08-25T09:47:12.572Z,66.90
2022-08-25T09:48:40.873Z,66.43
2022-08-25T09:49:47.386Z,68.35
2022-08-25T09:50:51.036Z,67.03
2022-08-25T09:51:52.748Z,68.59
2022-08-25T09:52:54.441Z,69.28
2022-08-25T09:53:58.374Z,67.85
2022-08-25T09:55:27.386Z,67.70
2022-08-25T09:56:32.377Z,69.80
2022-08-25T09:57:44.205Z,67.10
2022-08-25T09:58:45.790Z,67.11
2022-08-25T09:59:55.717Z,66.88
2022-08-25T10:01:18.786Z,67.63
2022-08-25T10:02:29.499Z,68.97
2022-08-25T10:03:32.297Z,70.05
2022-08-25T10:04:40.587Z,70.73
2022-08-25T10:06:00.930Z,67.30
2022-08-25T10:07:20.574Z,67.57
2022-08-25T10:08:31.401Z,62.95
2022-08-25T10:09:43.067Z,63.15
2022-08-25T10:10:53.192Z,63.37
2022-08-25T10:11:57.612Z,63.44
2022-08-25T10:13:01.771Z,65.04
2022-08-25T10:14:06.997Z,65.47
2022-08-25T10:15:37.534Z,61.58
2022-08-25T10:16:39.260Z,61.56
2022-08-25T10:17:40.885Z,59.68
2022-08-25T10:18:42.493Z,63.55
2022-08-25T10:19:44.625Z,62.41
2022-08-25T10:21:08.960Z,59.91
2022-08-25T10:22:23.424Z,60.64
2022-08-25T10:23:27.576Z,61.96
2022-08-25T10:24:33.329Z,62.36
2022-08-25T10:25:43.619Z,65.09
2022-08-25T10:27:18.458Z,62.75
2022-08-25T10:28:26.349Z,61.98
2022-08-25T10:29:30.461Z,59.87
2022-08-25T10:31:02.039Z,58.67
2022-08-25T10:32:11.484Z,57.39
2022-08-25T10:33:24.859Z,60.87
2022-08-25T10:34:35.677Z,58.90
2022-08-25T10:35:46.409Z,56.67
2022-08-25T10:37:01.194Z,57.81
2022-08-25T10:38:22.321Z,55.95
2022-08-25T10:39:41.794Z,57.05
2022-08-25T10:40:51.289Z,55.15
2022-08-25T10:42:25.749Z,56.28
2022-08-25T10:43:40.918Z,51.98
2022-08-25T10:45:22.230Z,51.73
2022-08-25T10:46:52.926Z,50.65
2022-08-25T10:48:08.173Z,50.87
2022-08-25T10:49:26.814Z,51.44
2022-08-25T10:50:37.510Z,48.16
2022-08-25T10:52:03.643Z,48.71
2022-08-25T10:53:24.135Z,48.91
2022-08-25T10:54:44.415Z,47.54
2022-08-25T10:56:07.306Z,46.90
2022-08-25T10:57:39.642Z,48.14
2022-08-25T10:58:59.798Z,47.94
2022-08-25T11:00:10.017Z,48.35
2022-08-25T11:01:19.179Z,47.55
2022-08-25T11:02:54.620Z,47.17
2022-08-25T11:04:02.875Z,48.56
2022-08-25T11:05:12.987Z,49.30
2022-08-25T11:06:24.975Z,44.98
2022-08-25T11:07:44.996Z,45.89
2022-08-25T11:08:53.215Z,44.51
2022-08-25T11:10:03.152Z,45.58
2022-08-25T11:11:29.897Z,46.56
2022-08-25T11:12:35.764Z,45.96
2022-08-25T11:13:37.443Z,44.06
2022-08-25T11:14:49.471Z,44.11
2022-08-25T11:16:16.145Z,45.92
2022-08-25T11:17:30.250Z,45.54
2022-08-25T11:18:33.015Z,45.91
2022-08-25T11:20:00.900Z,46.17
2022-08-25T11:21:45.663Z,45.33
2022-08-25T11:22:59.313Z,45.38
2022-08-25T11:24:10.714Z,46.07
2022-08-25T11:25:25.562Z,45.27
2022-08-25T11:26:36.808Z,44.77
2022-08-25T11:27:38.825Z,45.02
2022-08-25T11:28:54.215Z,46.39
2022-08-25T11:30:11.540Z,44.67
2022-08-25T11:31:15.407Z,44.71
2022-08-25T11:32:20.940Z,46.39
2022-08-25T11:33:24.614Z,45.58
2022-08-25T11:34:31.075Z,46.90
2022-08-25T11:35:49.026Z,46.13
2022-08-25T11:37:11.160Z,47.89
2022-08-25T11:38:32.456Z,46.56
2022-08-25T11:40:04.052Z,46.91
2022-08-25T11:41:28.550Z,46.64
2022-08-25T11:42:51.900Z,45.43
2022-08-25T11:44:05.573Z,46.04
2022-08-25T11:45:16.493Z,47.57
2022-08-25T11:46:30.320Z,46.88
2022-08-25T11:47:39.935Z,47.00
2022-08-25T11:48:54.480Z,47.67
2022-08-25T11:50:09.298Z,48.97
2022-08-25T11:51:27.508Z,47.93
2022-08-25T11:52:38.106Z,47.12
2022-08-25T11:53:44.077Z,47.63
2022-08-25T11:54:48.407Z,48.24
2022-08-25T11:55:54.129Z,47.88
2022-08-25T11:57:18.056Z,46.66
2022-08-25T11:58:40.622Z,46.08
2022-08-25T11:59:51.799Z,46.01
2022-08-25T12:00:54.340Z,47.74
2022-08-25T12:01:55.887Z,48.07
2022-08-25T12:03:01.400Z,48.46
2022-08-25T12:04:34.121Z,47.28
2022-08-25T12:05:52.779Z,47.54
2022-08-25T12:07:07.017Z,46.42
2022-08-25T12:08:27.665Z,45.66
2022-08-25T12:09:29.326Z,46.20
2022-08-25T12:10:51.825Z,45.96
2022-08-25T12:11:58.407Z,46.73
2022-08-25T12:13:38.022Z,46.67
2022-08-25T12:14:43.196Z,46.72
2022-08-25T12:15:47.621Z,46.83
2022-08-25T12:16:51.481Z,47.25
2022-08-25T12:18:15.188Z,47.79
2022-08-25T12:19:35.139Z,47.87
2022-08-25T12:20:57.913Z,47.53
2022-08-25T12:22:03.631Z,46.24
2022-08-25T12:23:05.547Z,46.67
2022-08-25T12:24:14.603Z,46.84
2022-08-25T12:25:33.853Z,46.80
2022-08-25T12:27:00.685Z,47.54
2022-08-25T12:28:19.484Z,47.52
2022-08-25T12:29:34.412Z,47.54
2022-08-25T12:30:51.079Z,47.47
2022-08-25T12:32:04.714Z,47.97
2022-08-25T12:33:36.515Z,47.32
2022-08-25T12:35:02.023Z,48.12
2022-08-25T12:36:11.335Z,46.96
2022-08-25T12:37:22.236Z,47.82
2022-08-25T12:38:35.037Z,48.10
2022-08-25T12:40:02.814Z,49.74
2022-08-25T12:41:10.987Z,49.38
2022-08-25T12:42:36.046Z,48.17
2022-08-25T12:43:44.804Z,48.15
2022-08-25T12:44:48.576Z,48.35
2022-08-25T12:45:53.089Z,47.62
2022-08-25T12:47:29.876Z,48.00
2022-08-25T12:48:55.963Z,46.83
2022-08-25T12:50:25.799Z,47.74
2022-08-25T12:51:55.083Z,48.56
2022-08-25T12:53:17.878Z,47.80
2022-08-25T12:54:22.546Z,46.82
2022-08-25T12:55:26.387Z,49.15
2022-08-25T12:56:47.738Z,48.55
2022-08-25T12:57:58.657Z,48.14
2022-08-25T12:59:03.701Z,47.81
2022-08-25T13:00:16.840Z,48.15
2022-08-25T13:01:35.271Z,47.66
2022-08-25T13:02:59.003Z,46.71
2022-08-25T13:04:30.440Z,47.46
2022-08-25T13:05:34.740Z,47.22
2022-08-25T13:06:48.888Z,47.13
2022-08-25T13:08:24.181Z,47.81
2022-08-25T13:09:46.096Z,47.15
2022-08-25T13:10:55.174Z,47.09
2022-08-25T13:12:07.921Z,46.90
2022-08-25T13:13:39.711Z,47.13
2022-08-25T13:14:43.889Z,47.37
2022-08-25T13:16:02.418Z,47.24
2022-08-25T13:17:04.359Z,47.74
2022-08-25T13:18:23.300Z,48.38
2022-08-25T13:19:25.718Z,48.02
2022-08-25T13:20:30.971Z,47.38
2022-08-25T13:21:38.994Z,47.38
2022-08-25T13:22:41.104Z,48.93
2022-08-25T13:23:46.619Z,47.80
2022-08-25T13:24:50.960Z,48.43
2022-08-25T13:25:54.118Z,47.83
2022-08-25T13:27:04.188Z,47.57
2022-08-25T13:28:06.633Z,47.83
2022-08-25T13:29:27.803Z,48.13
2022-08-25T13:30:33.682Z,47.58
2022-08-25T13:31:38.482Z,48.15
2022-08-25T13:32:43.727Z,48.72
2022-08-25T13:34:02.337Z,48.64
2022-08-25T13:35:11.669Z,49.51
2022-08-25T13:36:35.829Z,48.94
2022-08-25T13:37:37.986Z,48.13
2022-08-25T13:38:40.138Z,48.46
2022-08-25T13:39:56.769Z,48.43
2022-08-25T13:41:09.280Z,48.36
2022-08-25T13:42:16.975Z,48.28
2022-08-25T13:43:27.426Z,49.19
2022-08-25T13:44:32.109Z,49.27
2022-08-25T13:45:40.957Z,48.47
2022-08-25T13:46:45.422Z,48.79
2022-08-25T13:47:48.885Z,48.13
2022-08-25T13:49:06.406Z,48.46
2022-08-25T13:50:26.497Z,48.50
2022-08-25T13:51:31.268Z,47.88
2022-08-25T13:52:33.476Z,47.52
2022-08-25T13:53:35.227Z,47.61
2022-08-25T13:54:41.943Z,47.89
2022-08-25T13:55:57.215Z,47.72
2022-08-25T13:57:16.889Z,47.28
2022-08-25T13:58:39.033Z,47.19
2022-08-25T13:59:51.803Z,47.13
2022-08-25T14:01:23.086Z,46.85
2022-08-25T14:02:54.189Z,47.17
2022-08-25T14:05:17.629Z,47.89
2022-08-25T14:06:25.203Z,48.39
2022-08-25T14:07:33.637Z,48.54
2022-08-25T14:08:44.979Z,48.05
2022-08-25T14:09:52.355Z,48.31
2022-08-25T14:11:08.710Z,47.47
2022-08-25T14:12:44.772Z,47.20
2022-08-25T14:13:46.892Z,48.02
2022-08-25T14:15:10.924Z,47.65
2022-08-25T14:16:22.159Z,47.23
2022-08-25T14:17:39.464Z,47.40
2022-08-25T14:18:58.854Z,47.89